Time;durP1;ratioP1;P1;durP2;ratioP2;P2;SDS_P1;SDS_P2;PMS_P1;PMS_P2;Temp;Humidity;BMP_temperature;BMP_pressure;BME280_temperature;BME280_humidity;BME280_pressure;Samples;Min_cycle;Max_cycle;Signal;HPM_P1;HPM_P2
2022/03/06 00:01:10;;;;;;;19.88;12.05;;;;;;;;;;5038984;28;20037;-93
2022/03/06 00:03:36;;;;;;;17.95;11.23;;;;;;;;;;5055193;28;20037;-94
2022/03/06 00:06:02;;;;;;;18.45;11.40;;;;;;;;;;5038623;28;20048;-92
2022/03/06 00:08:28;;;;;;;16.88;11.13;;;;;;;;;;5038290;28;20047;-92
2022/03/06 00:10:57;;;;;;;17.58;11.93;;;;;;;;;;5055587;28;20041;-93
2022/03/06 00:13:23;;;;;;;17.02;10.77;;;;;;;;;;5054786;28;20052;-91
2022/03/06 00:15:49;;;;;;;14.77;10.85;;;;;;;;;;5055070;28;20056;-92
2022/03/06 00:18:15;;;;;;;16.65;10.35;;;;;;;;;;5054933;28;20045;-92
2022/03/06 00:20:42;;;;;;;16.73;11.05;;;;;;;;;;5055335;28;20384;-93
2022/03/06 00:23:08;;;;;;;16.42;11.13;;;;;;;;;;5038177;28;20392;-92
2022/03/06 00:25:34;;;;;;;18.85;11.18;;;;;;;;;;5054990;28;20099;-93
2022/03/06 00:28:00;;;;;;;15.50;10.30;;;;;;;;;;5054482;28;20480;-93
2022/03/06 00:30:26;;;;;;;15.85;11.00;;;;;;;;;;5055731;28;20060;-93
2022/03/06 00:32:52;;;;;;;15.45;10.73;;;;;;;;;;5054539;28;20480;-92
2022/03/06 00:35:18;;;;;;;17.40;10.55;;;;;;;;;;5054743;28;20546;-93
2022/03/06 00:37:44;;;;;;;16.52;10.45;;;;;;;;;;5037705;28;20041;-95
2022/03/06 00:40:11;;;;;;;13.90;10.43;;;;;;;;;;5054519;28;20043;-94
2022/03/06 00:42:37;;;;;;;16.60;9.65;;;;;;;;;;5053905;28;20084;-92
2022/03/06 00:45:03;;;;;;;16.65;10.38;;;;;;;;;;5054365;28;20040;-91
2022/03/06 00:47:30;;;;;;;15.02;9.80;;;;;;;;;;5053920;28;20392;-93
2022/03/06 00:49:56;;;;;;;16.15;9.57;;;;;;;;;;5054610;28;20131;-94
2022/03/06 00:52:22;;;;;;;14.90;9.25;;;;;;;;;;5054018;28;20041;-92
2022/03/06 00:54:48;;;;;;;18.45;10.32;;;;;;;;;;5037608;28;20047;-93
2022/03/06 00:57:14;;;;;;;13.70;9.18;;;;;;;;;;5054097;28;20044;-93
2022/03/06 00:59:40;;;;;;;16.00;9.40;;;;;;;;;;5053951;28;20044;-91
2022/03/06 01:02:06;;;;;;;15.95;8.90;;;;;;;;;;5053965;28;20107;-91
2022/03/06 01:04:33;;;;;;;15.98;9.77;;;;;;;;;;5054177;28;20485;-91
2022/03/06 01:06:59;;;;;;;16.10;9.05;;;;;;;;;;5053780;28;20496;-92
2022/03/06 01:09:25;;;;;;;15.32;9.60;;;;;;;;;;5054027;28;20132;-92
2022/03/06 01:11:51;;;;;;;14.77;8.63;;;;;;;;;;5055343;28;20044;-94
2022/03/06 01:14:17;;;;;;;14.32;8.80;;;;;;;;;;5054007;28;20044;-94
2022/03/06 01:16:44;;;;;;;12.63;9.05;;;;;;;;;;5037250;28;20037;-93
2022/03/06 01:19:10;;;;;;;17.35;8.88;;;;;;;;;;5053984;28;20040;-94
2022/03/06 01:21:36;;;;;;;14.00;8.35;;;;;;;;;;5053822;28;20041;-95
2022/03/06 01:24:02;;;;;;;15.15;8.35;;;;;;;;;;5053996;28;20068;-93
2022/03/06 01:26:28;;;;;;;14.23;8.80;;;;;;;;;;5053578;28;20041;-92
2022/03/06 01:28:54;;;;;;;13.48;8.32;;;;;;;;;;5053621;28;20098;-91
2022/03/06 01:31:20;;;;;;;11.90;8.02;;;;;;;;;;5054172;28;20122;-93
2022/03/06 01:33:46;;;;;;;13.23;7.75;;;;;;;;;;5053754;28;20044;-92
2022/03/06 01:36:12;;;;;;;13.23;8.00;;;;;;;;;;5053968;28;20135;-93
2022/03/06 01:38:38;;;;;;;13.70;8.52;;;;;;;;;;5053282;28;20040;-93
2022/03/06 01:41:04;;;;;;;13.88;7.78;;;;;;;;;;5036512;28;20071;-95
2022/03/06 01:43:30;;;;;;;12.48;8.32;;;;;;;;;;5053769;28;20045;-94
2022/03/06 01:45:56;;;;;;;12.25;7.93;;;;;;;;;;5036702;28;20043;-93
2022/03/06 01:48:22;;;;;;;15.18;7.65;;;;;;;;;;5053201;28;20060;-95
2022/03/06 01:50:48;;;;;;;12.65;7.85;;;;;;;;;;5036760;28;20047;-92
2022/03/06 01:53:14;;;;;;;13.55;7.85;;;;;;;;;;5053536;28;20549;-94
2022/03/06 01:55:42;;;;;;;12.68;7.40;;;;;;;;;;5053365;28;20044;-94
2022/03/06 01:58:09;;;;;;;12.93;7.60;;;;;;;;;;5054197;28;20540;-94
2022/03/06 02:00:37;;;;;;;13.43;8.00;;;;;;;;;;5052911;28;20137;-92
2022/03/06 02:03:03;;;;;;;12.88;7.50;;;;;;;;;;5053495;28;20037;-93
2022/03/06 02:05:29;;;;;;;13.35;6.75;;;;;;;;;;5052978;28;20068;-92
2022/03/06 02:07:55;;;;;;;14.40;7.30;;;;;;;;;;5052913;28;20071;-92
2022/03/06 02:10:21;;;;;;;12.63;7.45;;;;;;;;;;5052880;28;20033;-93
2022/03/06 02:12:48;;;;;;;13.48;6.85;;;;;;;;;;5052694;28;20048;-92
2022/03/06 02:15:15;;;;;;;13.45;7.47;;;;;;;;;;5053430;28;20185;-91
2022/03/06 02:17:41;;;;;;;12.05;7.30;;;;;;;;;;5035830;28;20064;-92
2022/03/06 02:20:09;;;;;;;11.60;7.57;;;;;;;;;;5053872;28;20049;-92
2022/03/06 02:22:36;;;;;;;12.48;7.10;;;;;;;;;;5052784;28;20044;-93
2022/03/06 02:25:04;;;;;;;12.73;7.45;;;;;;;;;;5053060;28;20477;-90
2022/03/06 02:27:30;;;;;;;13.18;7.57;;;;;;;;;;5035914;28;20047;-92
2022/03/06 02:29:56;;;;;;;14.23;7.47;;;;;;;;;;5036042;28;20044;-93
2022/03/06 02:32:23;;;;;;;12.18;7.43;;;;;;;;;;5052439;28;20041;-94
2022/03/06 02:34:50;;;;;;;11.32;7.05;;;;;;;;;;5052619;28;20134;-91
2022/03/06 02:37:18;;;;;;;11.88;7.45;;;;;;;;;;5052236;28;20041;-91
2022/03/06 02:39:45;;;;;;;14.40;7.30;;;;;;;;;;5052109;28;20041;-92
2022/03/06 02:42:11;;;;;;;12.40;6.55;;;;;;;;;;5052108;28;20081;-93
2022/03/06 02:44:37;;;;;;;10.05;6.53;;;;;;;;;;5052396;28;20101;-92
2022/03/06 02:47:04;;;;;;;11.07;6.15;;;;;;;;;;5052354;28;20052;-93
2022/03/06 02:49:30;;;;;;;10.93;6.57;;;;;;;;;;5035608;28;20084;-92
2022/03/06 02:51:56;;;;;;;9.18;5.32;;;;;;;;;;5053012;28;20041;-94
2022/03/06 02:54:22;;;;;;;9.70;5.25;;;;;;;;;;5052089;28;20480;-92
2022/03/06 02:56:48;;;;;;;10.88;5.70;;;;;;;;;;5035593;28;20055;-94
2022/03/06 02:59:14;;;;;;;11.73;5.88;;;;;;;;;;5035545;28;20048;-93
2022/03/06 03:01:41;;;;;;;9.90;4.72;;;;;;;;;;5052617;28;20040;-94
2022/03/06 03:04:11;;;;;;;8.68;4.45;;;;;;;;;;5052036;28;20045;-94
2022/03/06 03:06:38;;;;;;;9.38;5.10;;;;;;;;;;5052084;28;20037;-92
2022/03/06 03:09:07;;;;;;;8.80;4.65;;;;;;;;;;5052210;28;20396;-92
2022/03/06 03:11:34;;;;;;;10.30;4.93;;;;;;;;;;5054181;28;20072;-93
2022/03/06 03:14:01;;;;;;;9.35;4.32;;;;;;;;;;5056306;28;20037;-93
2022/03/06 03:16:27;;;;;;;9.48;4.72;;;;;;;;;;5039962;28;20045;-93
2022/03/06 03:18:53;;;;;;;9.18;4.57;;;;;;;;;;5055972;28;20128;-93
2022/03/06 03:21:19;;;;;;;10.63;4.97;;;;;;;;;;5056193;28;20067;-93
2022/03/06 03:23:45;;;;;;;8.23;4.43;;;;;;;;;;5056026;28;20044;-93
2022/03/06 03:26:11;;;;;;;10.50;4.75;;;;;;;;;;5039478;28;20044;-93
2022/03/06 03:28:37;;;;;;;8.95;4.90;;;;;;;;;;5039163;28;20040;-93
2022/03/06 03:31:03;;;;;;;10.45;5.20;;;;;;;;;;5055794;28;20055;-93
2022/03/06 03:33:29;;;;;;;10.35;5.13;;;;;;;;;;5055733;28;20045;-93
2022/03/06 03:35:56;;;;;;;8.05;4.40;;;;;;;;;;5039204;28;20048;-94
2022/03/06 03:38:22;;;;;;;10.60;4.65;;;;;;;;;;5038653;28;20045;-93
2022/03/06 03:40:48;;;;;;;11.95;5.38;;;;;;;;;;5055957;28;20391;-92
2022/03/06 03:43:14;;;;;;;9.05;5.07;;;;;;;;;;5055415;28;20100;-94
2022/03/06 03:45:40;;;;;;;11.32;5.22;;;;;;;;;;5056927;28;20566;-93
2022/03/06 03:48:06;;;;;;;10.60;5.10;;;;;;;;;;5055635;28;20126;-93
2022/03/06 03:50:32;;;;;;;11.48;5.30;;;;;;;;;;5039048;28;20391;-94
2022/03/06 03:52:58;;;;;;;8.25;4.65;;;;;;;;;;5055589;28;20044;-93
2022/03/06 03:55:24;;;;;;;8.68;4.60;;;;;;;;;;5039184;28;20033;-92
2022/03/06 03:57:50;;;;;;;11.52;4.50;;;;;;;;;;5039952;28;20071;-92
2022/03/06 04:00:16;;;;;;;10.05;5.07;;;;;;;;;;5055163;28;20120;-92
2022/03/06 04:02:42;;;;;;;10.35;5.00;;;;;;;;;;5055351;28;20128;-93
2022/03/06 04:05:09;;;;;;;11.40;5.05;;;;;;;;;;5054892;28;20121;-93
2022/03/06 04:07:35;;;;;;;9.80;5.03;;;;;;;;;;5055165;28;20391;-94
2022/03/06 04:10:01;;;;;;;8.80;5.18;;;;;;;;;;5055576;28;20064;-93
2022/03/06 04:12:27;;;;;;;10.90;5.57;;;;;;;;;;5055602;28;20041;-93
2022/03/06 04:14:53;;;;;;;8.88;4.93;;;;;;;;;;5038243;28;20041;-94
2022/03/06 04:17:19;;;;;;;10.20;4.88;;;;;;;;;;5054874;28;20083;-93
2022/03/06 04:19:45;;;;;;;9.15;4.93;;;;;;;;;;5038172;28;20187;-92
2022/03/06 04:22:11;;;;;;;11.73;5.45;;;;;;;;;;5037901;28;20144;-91
2022/03/06 04:24:37;;;;;;;9.80;4.40;;;;;;;;;;5037949;28;20040;-93
2022/03/06 04:27:03;;;;;;;8.98;4.82;;;;;;;;;;5054647;28;20037;-93
2022/03/06 04:29:30;;;;;;;9.73;4.93;;;;;;;;;;5054618;28;20040;-94
2022/03/06 04:31:56;;;;;;;9.32;4.60;;;;;;;;;;5038286;28;20044;-94
2022/03/06 04:34:22;;;;;;;9.68;4.80;;;;;;;;;;5054541;28;20073;-93
2022/03/06 04:36:48;;;;;;;7.65;4.35;;;;;;;;;;5054481;28;20044;-93
2022/03/06 04:39:14;;;;;;;8.77;4.30;;;;;;;;;;5054304;28;20048;-92
2022/03/06 04:41:40;;;;;;;6.30;3.85;;;;;;;;;;5054617;28;20067;-94
2022/03/06 04:44:19;;;;;;;11.55;4.80;;;;;;;;;;5054948;28;20132;-94
2022/03/06 04:46:46;;;;;;;9.02;4.32;;;;;;;;;;5058536;28;20287;-93
2022/03/06 04:49:12;;;;;;;8.93;3.92;;;;;;;;;;5037685;28;20408;-93
2022/03/06 04:51:38;;;;;;;10.18;4.25;;;;;;;;;;5054591;28;20041;-93
2022/03/06 04:54:05;;;;;;;8.95;3.70;;;;;;;;;;5054102;28;20045;-93
2022/03/06 04:56:31;;;;;;;9.27;4.00;;;;;;;;;;5054483;28;20045;-92
2022/03/06 04:58:57;;;;;;;9.02;4.00;;;;;;;;;;5037345;28;20132;-93
2022/03/06 05:01:23;;;;;;;8.35;3.72;;;;;;;;;;5037560;28;20047;-93
2022/03/06 05:03:49;;;;;;;8.77;3.90;;;;;;;;;;5054633;28;20395;-94
2022/03/06 05:06:15;;;;;;;8.57;3.72;;;;;;;;;;5054134;28;20507;-93
2022/03/06 05:08:42;;;;;;;8.18;4.20;;;;;;;;;;5054432;28;20476;-94
2022/03/06 05:11:08;;;;;;;11.73;3.83;;;;;;;;;;5053905;28;20048;-92
2022/03/06 05:13:34;;;;;;;8.32;3.85;;;;;;;;;;5055098;28;20040;-94
2022/03/06 05:16:00;;;;;;;10.70;4.60;;;;;;;;;;5054961;28;20087;-92
2022/03/06 05:18:26;;;;;;;9.18;4.13;;;;;;;;;;5053822;28;20049;-92
2022/03/06 05:20:52;;;;;;;7.10;3.70;;;;;;;;;;5037704;28;20043;-94
2022/03/06 05:23:18;;;;;;;10.30;3.78;;;;;;;;;;5054658;28;20079;-92
2022/03/06 05:25:45;;;;;;;9.50;4.22;;;;;;;;;;5053505;28;20043;-92
2022/03/06 05:28:11;;;;;;;8.40;4.07;;;;;;;;;;5037684;28;20439;-92
2022/03/06 05:30:37;;;;;;;9.32;4.03;;;;;;;;;;5053633;28;20041;-93
2022/03/06 05:33:03;;;;;;;8.27;3.78;;;;;;;;;;5036965;28;20043;-93
2022/03/06 05:35:29;;;;;;;7.18;3.17;;;;;;;;;;5053572;28;20116;-93
2022/03/06 05:37:56;;;;;;;10.02;3.72;;;;;;;;;;5037639;28;20048;-96
2022/03/06 05:40:22;;;;;;;7.47;3.33;;;;;;;;;;5054227;28;20396;-94
2022/03/06 05:42:48;;;;;;;7.72;3.38;;;;;;;;;;5053670;28;20091;-92
2022/03/06 05:45:14;;;;;;;9.77;3.22;;;;;;;;;;5053741;28;20037;-93
2022/03/06 05:47:40;;;;;;;8.65;3.80;;;;;;;;;;5053926;28;20040;-94
2022/03/06 05:50:07;;;;;;;7.28;3.45;;;;;;;;;;5053346;28;20067;-93
2022/03/06 05:52:33;;;;;;;9.40;3.17;;;;;;;;;;5036971;28;20091;-93
2022/03/06 05:54:59;;;;;;;7.32;3.40;;;;;;;;;;5053226;28;20099;-92
2022/03/06 05:57:25;;;;;;;6.85;3.92;;;;;;;;;;5053021;28;20092;-93
2022/03/06 05:59:52;;;;;;;10.77;3.88;;;;;;;;;;5053208;28;20053;-93
2022/03/06 06:02:19;;;;;;;9.55;3.58;;;;;;;;;;5053493;28;20036;-93
2022/03/06 06:04:45;;;;;;;8.18;3.72;;;;;;;;;;5036623;28;20082;-93
2022/03/06 06:07:11;;;;;;;9.18;3.33;;;;;;;;;;5053201;28;20068;-91
2022/03/06 06:09:37;;;;;;;8.45;3.47;;;;;;;;;;5053337;28;20041;-91
2022/03/06 06:12:04;;;;;;;8.73;3.60;;;;;;;;;;5036615;28;20464;-93
2022/03/06 06:14:31;;;;;;;8.85;3.47;;;;;;;;;;5053114;28;20037;-95
2022/03/06 06:16:57;;;;;;;6.15;3.28;;;;;;;;;;5052750;28;20045;-93
2022/03/06 06:19:23;;;;;;;12.80;3.95;;;;;;;;;;5052649;28;20041;-94
2022/03/06 06:21:49;;;;;;;8.23;3.22;;;;;;;;;;5052484;28;20044;-92
2022/03/06 06:24:15;;;;;;;9.65;3.67;;;;;;;;;;5052761;28;20037;-93
2022/03/06 06:26:42;;;;;;;10.50;3.35;;;;;;;;;;5052483;28;20029;-92
2022/03/06 06:29:12;;;;;;;6.72;3.05;;;;;;;;;;5052701;28;20102;-92
2022/03/06 06:31:38;;;;;;;7.07;3.40;;;;;;;;;;5036240;28;20099;-93
2022/03/06 06:34:04;;;;;;;7.13;3.40;;;;;;;;;;5035868;28;20076;-91
2022/03/06 06:36:30;;;;;;;7.35;3.05;;;;;;;;;;5035831;28;20131;-91
2022/03/06 06:38:56;;;;;;;7.90;3.50;;;;;;;;;;5035736;28;20041;-93
2022/03/06 06:41:22;;;;;;;7.68;3.22;;;;;;;;;;5052131;28;20040;-92
2022/03/06 06:43:48;;;;;;;8.68;3.35;;;;;;;;;;5052471;28;20078;-92
2022/03/06 06:46:14;;;;;;;10.40;3.10;;;;;;;;;;5051895;28;20075;-93
2022/03/06 06:48:40;;;;;;;9.10;3.55;;;;;;;;;;5052622;28;20512;-93
2022/03/06 06:51:08;;;;;;;8.57;3.63;;;;;;;;;;5035433;28;20076;-92
2022/03/06 06:53:34;;;;;;;7.05;3.30;;;;;;;;;;5052747;28;20487;-93
2022/03/06 06:56:00;;;;;;;8.50;3.72;;;;;;;;;;5035558;28;20100;-95
2022/03/06 06:58:26;;;;;;;8.00;3.55;;;;;;;;;;5052720;28;20048;-94
2022/03/06 07:00:52;;;;;;;7.18;3.78;;;;;;;;;;5036024;28;20083;-92
2022/03/06 07:03:18;;;;;;;6.07;3.53;;;;;;;;;;5036060;28;20140;-94
2022/03/06 07:05:45;;;;;;;7.45;3.42;;;;;;;;;;5052159;28;20056;-94
2022/03/06 07:08:11;;;;;;;8.38;3.63;;;;;;;;;;5052157;28;20041;-92
2022/03/06 07:10:37;;;;;;;8.35;3.50;;;;;;;;;;5052233;28;20412;-93
2022/03/06 07:13:03;;;;;;;7.53;3.08;;;;;;;;;;5052177;28;20082;-94
2022/03/06 07:15:32;;;;;;;7.35;3.15;;;;;;;;;;5051890;28;20446;-93
2022/03/06 07:17:59;;;;;;;8.63;3.63;;;;;;;;;;5051888;28;20041;-91
2022/03/06 07:20:25;;;;;;;7.30;2.97;;;;;;;;;;5035307;28;20042;-92
2022/03/06 07:22:51;;;;;;;5.07;2.88;;;;;;;;;;5051976;28;20037;-92
2022/03/06 07:25:17;;;;;;;7.10;3.13;;;;;;;;;;5035127;28;20515;-94
2022/03/06 07:27:43;;;;;;;6.43;3.08;;;;;;;;;;5052265;28;20480;-94
2022/03/06 07:30:09;;;;;;;7.43;3.10;;;;;;;;;;5052009;28;20091;-92
2022/03/06 07:32:42;;;;;;;6.18;3.00;;;;;;;;;;5051706;28;20049;-92
2022/03/06 07:35:09;;;;;;;6.45;2.67;;;;;;;;;;5052975;28;20041;-93
2022/03/06 07:37:35;;;;;;;6.90;3.28;;;;;;;;;;5035482;28;20499;-94
2022/03/06 07:40:04;;;;;;;6.75;2.92;;;;;;;;;;5053131;28;20041;-93
2022/03/06 07:42:30;;;;;;;6.18;3.05;;;;;;;;;;5036956;28;20061;-94
2022/03/06 07:44:57;;;;;;;6.18;3.08;;;;;;;;;;5052827;28;20067;-94
2022/03/06 07:47:23;;;;;;;10.15;3.00;;;;;;;;;;5051483;28;20045;-93
2022/03/06 07:49:52;;;;;;;6.85;2.95;;;;;;;;;;5052200;28;20476;-94
2022/03/06 07:52:18;;;;;;;5.85;2.90;;;;;;;;;;5035146;28;20047;-92
2022/03/06 07:54:44;;;;;;;9.90;3.40;;;;;;;;;;5052280;28;20041;-93
2022/03/06 07:57:10;;;;;;;8.55;2.90;;;;;;;;;;5035266;28;20041;-94
2022/03/06 07:59:36;;;;;;;5.63;2.65;;;;;;;;;;5038663;28;20175;-93
2022/03/06 08:02:02;;;;;;;5.95;2.95;;;;;;;;;;5038799;28;20472;-93
2022/03/06 08:04:29;;;;;;;7.47;3.00;;;;;;;;;;5055533;28;20116;-93
2022/03/06 08:06:55;;;;;;;6.18;2.67;;;;;;;;;;5038362;28;20428;-94
2022/03/06 08:09:20;;;;;;;6.53;2.40;;;;;;;;;;5038581;28;20045;-94
2022/03/06 08:11:47;;;;;;;7.53;2.90;;;;;;;;;;5038606;28;20045;-94
2022/03/06 08:14:13;;;;;;;6.40;2.60;;;;;;;;;;5056011;28;20032;-94
2022/03/06 08:16:39;;;;;;;7.85;3.00;;;;;;;;;;5039303;28;20040;-94
2022/03/06 08:19:05;;;;;;;6.65;2.65;;;;;;;;;;5041019;28;20036;-94
2022/03/06 08:21:31;;;;;;;5.60;2.70;;;;;;;;;;5054903;28;20391;-90
2022/03/06 08:23:57;;;;;;;6.63;2.30;;;;;;;;;;5054866;28;20066;-92
2022/03/06 08:26:23;;;;;;;5.82;2.47;;;;;;;;;;5054706;28;20087;-93
2022/03/06 08:28:49;;;;;;;5.45;2.50;;;;;;;;;;5054810;28;20048;-93
2022/03/06 08:31:16;;;;;;;6.80;2.60;;;;;;;;;;5055817;28;20411;-95
2022/03/06 08:33:42;;;;;;;7.85;2.78;;;;;;;;;;5054787;28;20052;-93
2022/03/06 08:36:08;;;;;;;4.63;2.63;;;;;;;;;;5037905;28;20037;-93
2022/03/06 08:38:34;;;;;;;6.30;2.45;;;;;;;;;;5054479;28;20048;-92
2022/03/06 08:41:02;;;;;;;5.65;2.47;;;;;;;;;;5039213;28;20037;-96
2022/03/06 08:43:30;;;;;;;6.18;2.33;;;;;;;;;;5059296;28;20053;-93
2022/03/06 08:46:09;;;;;;;;;;;;;;;;;;;;;
2022/03/06 08:48:58;;;;;;;5.60;2.60;;;;;;;;;;5066013;28;20519;-94
2022/03/06 08:51:57;;;;;;;5.97;2.40;;;;;;;;;;5061449;28;20049;-93
2022/03/06 08:54:23;;;;;;;7.38;2.05;;;;;;;;;;5048278;28;20135;-95
2022/03/06 09:14:55;;;;;;;5.50;2.22;;;;;;;;;;5023934;28;20497;-96
2022/03/06 09:20:43;;;;;;;5.30;2.05;;;;;;;;;;5017210;28;20054;-95
2022/03/06 09:23:27;;;;;;;5.28;2.03;;;;;;;;;;5011927;28;20085;-94
2022/03/06 09:25:53;;;;;;;6.00;2.30;;;;;;;;;;5021851;28;20045;-95
2022/03/06 10:03:04;;;;;;;5.22;2.65;;;;;;;;;;5063872;28;20049;-94
2022/03/06 10:05:42;;;;;;;;;;;;;;;;;;;;;
2022/03/06 10:14:07;;;;;;;4.90;2.40;;;;;;;;;;5062434;28;20041;-93
2022/03/06 10:16:33;;;;;;;7.25;2.70;;;;;;;;;;5063925;28;20037;-93
2022/03/06 10:19:04;;;;;;;5.45;2.55;;;;;;;;;;5074017;28;20514;-92
2022/03/06 10:21:32;;;;;;;6.18;2.72;;;;;;;;;;5061663;28;20075;-94
2022/03/06 10:24:06;;;;;;;6.40;2.42;;;;;;;;;;5061860;28;20060;-95
2022/03/06 10:26:57;;;;;;;4.78;2.40;;;;;;;;;;5075114;28;20079;-91
2022/03/06 10:29:25;;;;;;;6.18;2.60;;;;;;;;;;5076665;28;20052;-94
2022/03/06 10:31:55;;;;;;;6.15;2.67;;;;;;;;;;5080164;28;20048;-96
2022/03/06 10:34:33;;;;;;;6.25;2.90;;;;;;;;;;5077705;28;20040;-93
2022/03/06 10:37:11;;;;;;;;;;;;;;;;;;;;;
2022/03/06 10:39:53;;;;;;;11.32;2.80;;;;;;;;;;5077755;28;20048;-95
2022/03/06 10:42:23;;;;;;;7.68;2.80;;;;;;;;;;5250301;22;20161;-96
2022/03/06 10:44:49;;;;;;;6.22;2.65;;;;;;;;;;5069729;28;20120;-94
2022/03/06 10:47:56;;;;;;;6.30;3.05;;;;;;;;;;5109526;28;20065;-91
2022/03/06 10:50:42;;;;;;;7.15;2.90;;;;;;;;;;5101462;28;20067;-94
2022/03/06 10:53:08;;;;;;;;;;;;;;;;;;5104347;28;20108;-94
2022/03/06 10:55:48;;;;;;;;;;;;;;;;;;;;;
2022/03/06 10:58:24;;;;;;;5.32;2.72;;;;;;;;;;5102041;28;20044;-95
2022/03/06 11:04:19;;;;;;;;;;;;;;;;;;;;;
2022/03/06 11:09:33;;;;;;;5.55;2.88;;;;;;;;;;5078771;28;20079;-94
2022/03/06 11:11:59;;;;;;;6.50;3.13;;;;;;;;;;5075619;28;20211;-94
2022/03/06 11:14:25;;;;;;;7.95;3.33;;;;;;;;;;5077513;28;20032;-94
2022/03/06 11:16:56;;;;;;;6.63;3.05;;;;;;;;;;5077276;28;20046;-92
2022/03/06 11:19:22;;;;;;;5.03;2.35;;;;;;;;;;5099064;28;20054;-95
2022/03/06 11:21:55;;;;;;;6.32;3.67;;;;;;;;;;5104214;28;20123;-93
2022/03/06 11:24:28;;;;;;;4.88;2.75;;;;;;;;;;5098847;28;20047;-93
2022/03/06 11:27:12;;;;;;;5.43;2.92;;;;;;;;;;5078147;28;20137;-94
2022/03/06 11:33:25;;;;;;;6.95;3.13;;;;;;;;;;5281171;22;20056;-92
2022/03/06 11:51:57;;;;;;;8.20;3.03;;;;;;;;;;5020118;28;20046;-93
2022/03/06 11:54:24;;;;;;;6.25;3.47;;;;;;;;;;5005061;28;20469;-94
2022/03/06 11:56:54;;;;;;;9.60;3.25;;;;;;;;;;5012075;28;20122;-95
2022/03/06 11:59:40;;;;;;;6.53;3.28;;;;;;;;;;4983188;28;20077;-95
2022/03/06 12:02:19;;;;;;;7.68;3.20;;;;;;;;;;4961657;28;20086;-95
2022/03/06 12:04:51;;;;;;;6.88;3.47;;;;;;;;;;4967997;28;20066;-93
2022/03/06 12:07:19;;;;;;;6.88;3.08;;;;;;;;;;5058449;22;20148;-95
2022/03/06 12:09:46;;;;;;;6.28;3.33;;;;;;;;;;5039524;28;20131;-93
2022/03/06 12:12:13;;;;;;;8.25;2.95;;;;;;;;;;5055606;28;20135;-94
2022/03/06 12:14:42;;;;;;;8.30;2.92;;;;;;;;;;5055253;28;20063;-96
2022/03/06 12:17:14;;;;;;;9.95;3.17;;;;;;;;;;5076952;28;20043;-94
2022/03/06 12:19:43;;;;;;;8.27;2.90;;;;;;;;;;5078299;28;20461;-95
2022/03/06 12:22:15;;;;;;;7.40;3.20;;;;;;;;;;5079239;28;20043;-95
2022/03/06 12:24:42;;;;;;;6.65;3.30;;;;;;;;;;5076466;28;20036;-94
2022/03/06 12:27:16;;;;;;;6.60;3.20;;;;;;;;;;5076448;28;20043;-94
2022/03/06 12:29:48;;;;;;;10.48;3.42;;;;;;;;;;5075043;28;20090;-94
2022/03/06 12:32:27;;;;;;;5.32;2.97;;;;;;;;;;5059208;28;20049;-95
2022/03/06 12:35:08;;;;;;;8.00;3.55;;;;;;;;;;5058756;28;20048;-93
2022/03/06 12:37:37;;;;;;;5.60;2.90;;;;;;;;;;5076367;28;20119;-96
2022/03/06 12:40:07;;;;;;;6.93;3.55;;;;;;;;;;5059317;28;20141;-93
2022/03/06 12:42:37;;;;;;;6.75;3.63;;;;;;;;;;5060933;28;20495;-96
2022/03/06 12:45:03;;;;;;;8.27;3.47;;;;;;;;;;5075212;28;20051;-94
2022/03/06 12:47:29;;;;;;;6.07;3.50;;;;;;;;;;5075838;28;20040;-94
2022/03/06 12:49:56;;;;;;;6.28;3.15;;;;;;;;;;5075877;28;20097;-94
2022/03/06 12:52:23;;;;;;;6.03;3.40;;;;;;;;;;5081794;28;20036;-95
2022/03/06 12:54:50;;;;;;;8.30;2.97;;;;;;;;;;5076930;28;20101;-94
2022/03/06 12:57:17;;;;;;;6.20;3.13;;;;;;;;;;5076219;28;20455;-96
2022/03/06 12:59:46;;;;;;;7.82;3.30;;;;;;;;;;5076555;28;20056;-94
2022/03/06 13:02:13;;;;;;;7.93;3.50;;;;;;;;;;5059127;28;20169;-95
2022/03/06 13:04:39;;;;;;;7.05;3.22;;;;;;;;;;5059757;28;20043;-94
2022/03/06 13:07:07;;;;;;;5.93;3.08;;;;;;;;;;5077338;28;20045;-93
2022/03/06 13:09:36;;;;;;;9.18;3.58;;;;;;;;;;5075332;28;20048;-94
2022/03/06 13:12:04;;;;;;;6.57;3.20;;;;;;;;;;5059866;28;20063;-95
2022/03/06 13:14:35;;;;;;;7.60;3.00;;;;;;;;;;5076224;28;20134;-93
2022/03/06 13:17:04;;;;;;;6.35;3.22;;;;;;;;;;5076074;28;20045;-94
2022/03/06 13:19:43;;;;;;;6.00;3.10;;;;;;;;;;5077378;28;20083;-94
2022/03/06 13:22:11;;;;;;;8.77;3.88;;;;;;;;;;5076514;28;20132;-93
2022/03/06 13:24:43;;;;;;;6.70;3.42;;;;;;;;;;5074329;28;20047;-93
2022/03/06 13:27:11;;;;;;;6.40;3.53;;;;;;;;;;5078991;28;20036;-91
2022/03/06 13:29:37;;;;;;;8.00;3.35;;;;;;;;;;5076857;28;20457;-95
2022/03/06 13:32:04;;;;;;;6.50;3.20;;;;;;;;;;5074373;28;20048;-94
2022/03/06 13:34:39;;;;;;;8.27;3.40;;;;;;;;;;5075228;28;20045;-93
2022/03/06 13:37:05;;;;;;;8.40;3.60;;;;;;;;;;5074379;28;20036;-93
2022/03/06 13:39:33;;;;;;;8.18;3.28;;;;;;;;;;5056418;28;20055;-94
2022/03/06 13:42:00;;;;;;;8.90;3.50;;;;;;;;;;5073857;28;20043;-93
2022/03/06 13:44:28;;;;;;;6.35;3.40;;;;;;;;;;5073007;28;20245;-91
2022/03/06 13:46:58;;;;;;;7.18;3.30;;;;;;;;;;5073127;28;20067;-95
2022/03/06 13:49:25;;;;;;;7.00;3.28;;;;;;;;;;5073134;28;20104;-93
2022/03/06 13:52:05;;;;;;;8.05;3.25;;;;;;;;;;5073412;28;20040;-93
2022/03/06 13:54:35;;;;;;;10.50;3.55;;;;;;;;;;5073162;28;20051;-94
2022/03/06 13:57:01;;;;;;;7.95;3.53;;;;;;;;;;5056094;28;20135;-94
2022/03/06 13:59:30;;;;;;;7.82;3.40;;;;;;;;;;5073008;28;20052;-93
2022/03/06 14:02:06;;;;;;;8.40;3.13;;;;;;;;;;5056782;28;20120;-92
2022/03/06 14:04:32;;;;;;;6.22;3.15;;;;;;;;;;5073926;28;20075;-96
2022/03/06 14:07:02;;;;;;;9.25;3.00;;;;;;;;;;5073599;28;20109;-93
2022/03/06 14:09:28;;;;;;;8.90;3.30;;;;;;;;;;5074675;28;20079;-94
2022/03/06 14:12:08;;;;;;;6.20;3.20;;;;;;;;;;5073357;28;20105;-96
2022/03/06 14:14:42;;;;;;;11.13;3.17;;;;;;;;;;5073661;28;20098;-94
2022/03/06 14:17:09;;;;;;;9.00;3.08;;;;;;;;;;5073617;28;20048;-92
2022/03/06 14:19:35;;;;;;;6.03;3.42;;;;;;;;;;5073187;28;20044;-95
2022/03/06 14:22:01;;;;;;;7.85;3.35;;;;;;;;;;5072833;28;20037;-93
2022/03/06 14:24:27;;;;;;;9.38;3.70;;;;;;;;;;5073930;28;20036;-91
2022/03/06 14:26:54;;;;;;;7.47;3.13;;;;;;;;;;5056822;28;20044;-95
2022/03/06 14:29:23;;;;;;;6.43;2.83;;;;;;;;;;5075547;28;20483;-92
2022/03/06 14:31:51;;;;;;;5.72;2.72;;;;;;;;;;5056797;28;20045;-95
2022/03/06 14:34:17;;;;;;;7.85;3.30;;;;;;;;;;5074699;28;20059;-93
2022/03/06 14:36:44;;;;;;;8.80;3.30;;;;;;;;;;5075025;28;20521;-94
2022/03/06 14:39:11;;;;;;;7.28;2.90;;;;;;;;;;5073785;28;20128;-93
2022/03/06 14:41:37;;;;;;;10.20;3.10;;;;;;;;;;5077842;28;20041;-92
2022/03/06 14:44:05;;;;;;;6.78;3.10;;;;;;;;;;5074121;28;20059;-95
2022/03/06 14:46:31;;;;;;;8.27;3.17;;;;;;;;;;5061473;28;20052;-95
2022/03/06 14:48:57;;;;;;;7.55;2.58;;;;;;;;;;5081422;28;20072;-94
2022/03/06 14:51:24;;;;;;;9.48;2.65;;;;;;;;;;5063960;28;20105;-94
2022/03/06 14:53:50;;;;;;;7.72;3.08;;;;;;;;;;5073664;28;20040;-90
2022/03/06 14:56:16;;;;;;;6.60;2.60;;;;;;;;;;5072572;28;20506;-93
2022/03/06 14:58:43;;;;;;;7.65;2.67;;;;;;;;;;5072263;28;20195;-94
2022/03/06 15:01:09;;;;;;;7.30;3.03;;;;;;;;;;5072528;28;20041;-94
2022/03/06 15:03:36;;;;;;;9.88;2.65;;;;;;;;;;5076269;28;20118;-95
2022/03/06 15:06:03;;;;;;;5.28;2.13;;;;;;;;;;5073613;28;20472;-94
2022/03/06 15:08:29;;;;;;;7.88;2.47;;;;;;;;;;5076022;28;20078;-94
2022/03/06 15:10:55;;;;;;;7.57;2.30;;;;;;;;;;5076841;28;20529;-95
2022/03/06 15:13:21;;;;;;;6.38;2.40;;;;;;;;;;5077335;28;20048;-93
2022/03/06 15:15:47;;;;;;;4.95;2.35;;;;;;;;;;5076481;28;20048;-94
2022/03/06 15:18:13;;;;;;;7.80;2.90;;;;;;;;;;5076700;28;20127;-93
2022/03/06 15:20:39;;;;;;;7.60;2.88;;;;;;;;;;5075984;28;20036;-94
2022/03/06 15:23:05;;;;;;;8.40;3.53;;;;;;;;;;5077485;28;20036;-93
2022/03/06 15:25:31;;;;;;;8.60;2.92;;;;;;;;;;5076260;28;20033;-94
2022/03/06 15:27:57;;;;;;;6.45;2.80;;;;;;;;;;5076293;28;20115;-94
2022/03/06 15:30:23;;;;;;;7.25;3.40;;;;;;;;;;5077398;28;20104;-95
2022/03/06 15:32:49;;;;;;;6.60;3.42;;;;;;;;;;5076508;28;20063;-95
2022/03/06 15:35:15;;;;;;;7.78;2.92;;;;;;;;;;5076460;28;20041;-94
2022/03/06 15:37:41;;;;;;;6.57;2.45;;;;;;;;;;5059142;28;20040;-93
2022/03/06 15:40:09;;;;;;;8.60;3.78;;;;;;;;;;5077045;28;20045;-93
2022/03/06 15:42:35;;;;;;;12.40;3.22;;;;;;;;;;5058676;28;20495;-92
2022/03/06 15:45:01;;;;;;;6.78;3.13;;;;;;;;;;5076129;28;20044;-93
2022/03/06 15:47:27;;;;;;;8.40;3.10;;;;;;;;;;5076192;28;20036;-93
2022/03/06 15:49:53;;;;;;;10.18;3.33;;;;;;;;;;5076341;28;20411;-94
2022/03/06 15:52:21;;;;;;;9.30;3.30;;;;;;;;;;5077424;28;20434;-93
2022/03/06 15:54:47;;;;;;;8.48;2.70;;;;;;;;;;5060844;28;20119;-93
2022/03/06 15:57:13;;;;;;;7.35;2.90;;;;;;;;;;5076143;28;20044;-94
2022/03/06 15:59:39;;;;;;;8.55;2.88;;;;;;;;;;5075593;28;20043;-95
2022/03/06 16:02:05;;;;;;;6.32;2.60;;;;;;;;;;5076332;28;20037;-93
2022/03/06 16:04:32;;;;;;;7.63;2.78;;;;;;;;;;5075771;28;20036;-92
2022/03/06 16:06:57;;;;;;;6.05;2.40;;;;;;;;;;5058898;28;20113;-93
2022/03/06 16:09:23;;;;;;;7.55;3.03;;;;;;;;;;5075390;28;20336;-96
2022/03/06 16:11:50;;;;;;;7.65;2.85;;;;;;;;;;5074997;28;20437;-95
2022/03/06 16:14:16;;;;;;;8.15;3.28;;;;;;;;;;5075410;28;20071;-93